createdAt,value
2022-08-07T00:01:12.628Z,14.57
2022-08-07T00:03:53.250Z,14.53
2022-08-07T00:06:29.428Z,14.51
2022-08-07T00:09:07.861Z,14.47
2022-08-07T00:11:48.108Z,14.44
2022-08-07T00:14:25.578Z,14.42
2022-08-07T00:16:58.812Z,14.40
2022-08-07T00:19:26.143Z,14.35
2022-08-07T00:22:03.380Z,14.31
2022-08-07T00:24:31.708Z,14.29
2022-08-07T00:27:07.533Z,14.26
2022-08-07T00:29:37.078Z,14.24
2022-08-07T00:32:05.835Z,14.22
2022-08-07T00:34:33.657Z,14.19
2022-08-07T00:37:02.654Z,14.17
2022-08-07T00:39:31.889Z,14.16
2022-08-07T00:42:02.158Z,14.12
2022-08-07T00:44:33.243Z,14.05
2022-08-07T00:47:00.273Z,14.05
2022-08-07T00:50:19.611Z,14.02
2022-08-07T00:52:13.217Z,13.99
2022-08-07T00:54:44.252Z,13.96
2022-08-07T00:57:11.428Z,13.95
2022-08-07T00:59:38.777Z,13.89
2022-08-07T01:02:14.116Z,13.88
2022-08-07T01:04:53.775Z,13.83
2022-08-07T01:07:25.023Z,13.83
2022-08-07T01:10:04.122Z,13.79
2022-08-07T01:12:34.448Z,13.72
2022-08-07T01:15:03.954Z,13.68
2022-08-07T01:17:32.154Z,13.65
2022-08-07T01:20:05.003Z,13.64
2022-08-07T01:22:33.255Z,13.60
2022-08-07T01:25:00.796Z,13.56
2022-08-07T01:27:32.441Z,13.55
2022-08-07T01:29:59.872Z,13.51
2022-08-07T01:32:28.042Z,13.48
2022-08-07T01:34:56.018Z,13.43
2022-08-07T01:37:24.438Z,13.43
2022-08-07T01:39:52.121Z,13.43
2022-08-07T01:42:40.058Z,13.41
2022-08-07T01:45:15.806Z,13.40
2022-08-07T01:48:21.111Z,13.38
2022-08-07T01:50:30.316Z,13.36
2022-08-07T01:53:00.982Z,13.33
2022-08-07T01:55:33.465Z,13.30
2022-08-07T01:58:06.679Z,13.26
2022-08-07T02:01:09.437Z,13.21
2022-08-07T02:03:50.905Z,13.15
2022-08-07T02:06:31.933Z,13.08
2022-08-07T02:09:03.758Z,13.02
2022-08-07T02:12:03.901Z,13.02
2022-08-07T02:14:35.711Z,13.00
2022-08-07T02:17:10.894Z,12.97
2022-08-07T02:20:04.685Z,12.95
2022-08-07T02:22:31.021Z,12.91
2022-08-07T02:24:58.790Z,12.87
2022-08-07T02:27:34.131Z,12.87
2022-08-07T02:30:07.119Z,12.83
2022-08-07T02:32:39.477Z,12.78
2022-08-07T02:36:29.364Z,12.73
2022-08-07T02:38:14.634Z,12.67
2022-08-07T02:40:44.196Z,12.65
2022-08-07T02:43:15.377Z,12.60
2022-08-07T02:45:58.674Z,12.58
2022-08-07T02:48:28.102Z,12.55
2022-08-07T02:50:56.186Z,12.55
2022-08-07T02:53:31.358Z,12.52
2022-08-07T02:56:12.855Z,12.44
2022-08-07T02:58:47.328Z,12.39
2022-08-07T03:01:19.131Z,12.37
2022-08-07T03:04:07.149Z,12.32
2022-08-07T03:06:36.089Z,12.33
2022-08-07T03:09:07.618Z,12.33
2022-08-07T03:11:51.845Z,12.31
2022-08-07T03:14:25.208Z,12.29
2022-08-07T03:16:52.394Z,12.27
2022-08-07T03:19:19.590Z,12.25
2022-08-07T03:21:50.423Z,12.23
2022-08-07T03:24:26.695Z,12.18
2022-08-07T03:27:00.137Z,12.13
2022-08-07T03:29:33.942Z,12.09
2022-08-07T03:32:06.763Z,12.08
2022-08-07T03:34:39.171Z,12.04
2022-08-07T03:37:12.441Z,12.01
2022-08-07T03:39:46.531Z,11.98
2022-08-07T03:42:26.941Z,11.95
2022-08-07T03:44:57.984Z,11.94
2022-08-07T03:47:25.539Z,11.90
2022-08-07T03:49:56.476Z,11.89
2022-08-07T03:52:27.328Z,11.90
2022-08-07T03:55:06.217Z,11.87
2022-08-07T03:59:05.521Z,11.85
2022-08-07T04:00:21.270Z,11.81
2022-08-07T04:02:59.339Z,11.77
2022-08-07T04:05:39.842Z,11.75
2022-08-07T04:08:16.063Z,11.73
2022-08-07T04:10:54.665Z,11.69
2022-08-07T04:14:10.326Z,11.67
2022-08-07T04:16:30.788Z,11.67
2022-08-07T04:19:12.614Z,11.63
2022-08-07T04:21:59.371Z,11.61
2022-08-07T04:24:33.570Z,11.59
2022-08-07T04:27:02.899Z,11.57
2022-08-07T04:29:48.675Z,11.55
2022-08-07T04:32:18.036Z,11.52
2022-08-07T04:34:55.516Z,11.53
2022-08-07T04:37:22.285Z,11.55
2022-08-07T04:39:50.843Z,11.57
2022-08-07T04:42:17.425Z,11.62
2022-08-07T04:44:54.561Z,11.67
2022-08-07T04:47:58.611Z,11.68
2022-08-07T04:50:44.021Z,11.70
2022-08-07T04:54:01.138Z,11.67
2022-08-07T04:58:14.999Z,11.65
2022-08-07T05:00:12.634Z,11.65
2022-08-07T05:03:02.747Z,11.64
2022-08-07T05:05:52.858Z,11.65
2022-08-07T05:09:00.814Z,11.66
2022-08-07T05:11:57.231Z,11.64
2022-08-07T05:14:52.110Z,11.66
2022-08-07T05:17:52.803Z,11.68
2022-08-07T05:20:13.729Z,11.69
2022-08-07T05:22:43.355Z,11.73
2022-08-07T05:25:25.706Z,11.74
2022-08-07T05:28:03.029Z,11.77
2022-08-07T05:30:47.254Z,11.79
2022-08-07T05:33:15.360Z,11.82
2022-08-07T05:35:45.589Z,11.85
2022-08-07T05:39:00.168Z,11.88
2022-08-07T05:41:05.287Z,11.94
2022-08-07T05:43:49.980Z,12.00
2022-08-07T05:46:29.582Z,12.06
2022-08-07T05:48:58.189Z,12.15
2022-08-07T05:51:26.151Z,12.25
2022-08-07T05:54:13.677Z,12.33
2022-08-07T05:56:47.769Z,12.42
2022-08-07T05:59:19.347Z,12.54
2022-08-07T06:01:49.802Z,12.68
2022-08-07T06:04:19.764Z,12.84
2022-08-07T06:06:47.634Z,12.97
2022-08-07T06:09:23.447Z,13.09
2022-08-07T06:12:10.035Z,13.23
2022-08-07T06:14:38.960Z,13.32
2022-08-07T06:17:07.322Z,13.43
2022-08-07T06:19:52.299Z,13.55
2022-08-07T06:22:26.921Z,13.67
2022-08-07T06:24:58.011Z,13.78
2022-08-07T06:27:44.502Z,13.87
2022-08-07T06:30:35.146Z,14.00
2022-08-07T06:33:01.106Z,14.13
2022-08-07T06:35:38.955Z,14.26
2022-08-07T06:38:19.835Z,14.39
2022-08-07T06:40:51.988Z,14.54
2022-08-07T06:43:23.540Z,14.66
2022-08-07T06:45:50.791Z,14.76
2022-08-07T06:48:24.707Z,14.87
2022-08-07T06:50:53.473Z,14.97
2022-08-07T06:55:28.647Z,15.06
2022-08-07T06:56:15.506Z,15.21
2022-08-07T07:00:13.579Z,15.35
2022-08-07T07:01:41.955Z,15.49
2022-08-07T07:04:28.202Z,15.60
2022-08-07T07:07:01.042Z,15.73
2022-08-07T07:09:31.200Z,15.84
2022-08-07T07:12:16.599Z,15.95
2022-08-07T07:15:08.685Z,16.05
2022-08-07T07:17:58.123Z,16.16
2022-08-07T07:20:29.707Z,16.24
2022-08-07T07:24:10.288Z,16.29
2022-08-07T07:26:33.868Z,16.37
2022-08-07T07:29:57.124Z,16.49
2022-08-07T07:31:47.467Z,16.58
2022-08-07T07:34:19.658Z,16.67
2022-08-07T07:36:52.610Z,16.75
2022-08-07T07:39:25.700Z,16.84
2022-08-07T07:42:13.308Z,16.93
2022-08-07T07:44:44.432Z,17.02
2022-08-07T07:47:23.646Z,17.11
2022-08-07T07:50:34.369Z,17.19
2022-08-07T07:52:41.683Z,17.27
2022-08-07T07:55:09.455Z,17.32
2022-08-07T07:57:52.059Z,17.37
2022-08-07T08:00:29.690Z,17.45
2022-08-07T08:03:07.983Z,17.53
2022-08-07T08:05:51.040Z,17.61
2022-08-07T08:08:35.212Z,17.70
2022-08-07T08:11:08.069Z,17.82
2022-08-07T08:13:54.852Z,17.93
2022-08-07T08:16:29.981Z,18.06
2022-08-07T08:19:00.260Z,18.19
2022-08-07T08:22:03.017Z,18.31
2022-08-07T08:25:04.783Z,18.45
2022-08-07T08:27:56.055Z,18.57
2022-08-07T08:30:24.791Z,18.71
2022-08-07T08:32:59.041Z,18.83
2022-08-07T08:35:28.862Z,18.94
2022-08-07T08:38:05.116Z,19.08
2022-08-07T08:40:38.009Z,19.21
2022-08-07T08:43:17.845Z,19.33
2022-08-07T08:46:00.741Z,19.44
2022-08-07T08:48:50.912Z,19.56
2022-08-07T08:52:01.087Z,19.71
2022-08-07T08:54:41.495Z,19.83
2022-08-07T08:57:16.384Z,19.97
2022-08-07T08:59:50.875Z,20.11
2022-08-07T09:02:40.363Z,20.25
2022-08-07T09:05:26.444Z,20.36
2022-08-07T09:08:32.819Z,20.51
2022-08-07T09:11:24.988Z,20.71
2022-08-07T09:14:20.283Z,20.91
2022-08-07T09:16:52.937Z,21.05
2022-08-07T09:19:57.564Z,21.22
2022-08-07T09:24:30.927Z,21.37
2022-08-07T09:26:01.402Z,21.51
2022-08-07T09:30:04.644Z,21.65
2022-08-07T09:31:48.633Z,21.80
2022-08-07T09:34:32.485Z,21.92
2022-08-07T09:37:20.403Z,22.02
2022-08-07T09:40:20.637Z,22.15
2022-08-07T09:43:08.338Z,22.26
2022-08-07T09:47:25.942Z,22.39
2022-08-07T09:50:01.780Z,22.52
2022-08-07T09:52:10.856Z,22.63
2022-08-07T09:55:04.431Z,22.79
2022-08-07T09:57:54.430Z,22.93
2022-08-07T10:00:30.004Z,23.06
2022-08-07T10:04:06.373Z,23.23
2022-08-07T10:06:12.013Z,23.39
2022-08-07T10:09:09.804Z,23.48
2022-08-07T10:12:01.662Z,23.63
2022-08-07T10:14:55.277Z,23.73
2022-08-07T10:18:00.941Z,23.84
2022-08-07T10:21:19.832Z,23.86
2022-08-07T10:24:04.934Z,24.02
2022-08-07T10:27:18.014Z,24.21
2022-08-07T10:29:51.604Z,24.39
2022-08-07T10:32:53.196Z,24.60
2022-08-07T10:35:55.381Z,24.69
2022-08-07T10:38:36.121Z,24.90
2022-08-07T10:41:46.618Z,24.99
2022-08-07T10:44:37.598Z,25.14
2022-08-07T10:47:53.339Z,25.30
2022-08-07T10:50:26.119Z,25.32
2022-08-07T10:53:05.229Z,25.45
2022-08-07T10:55:58.135Z,25.61
2022-08-07T10:58:59.977Z,25.77
2022-08-07T11:01:51.332Z,25.91
2022-08-07T11:04:52.172Z,26.05
2022-08-07T11:07:58.388Z,26.18
2022-08-07T11:10:19.955Z,26.31
2022-08-07T11:13:01.666Z,26.40
2022-08-07T11:15:34.226Z,26.51
2022-08-07T11:18:17.766Z,26.48
2022-08-07T11:20:56.224Z,26.56
2022-08-07T11:23:45.460Z,26.68
2022-08-07T11:26:27.800Z,26.75
2022-08-07T11:29:42.093Z,26.91
2022-08-07T11:32:08.856Z,27.02
2022-08-07T11:34:44.910Z,27.20
2022-08-07T11:37:57.503Z,27.44
2022-08-07T11:40:35.915Z,27.58
2022-08-07T11:44:10.749Z,27.63
2022-08-07T11:47:04.333Z,27.74
2022-08-07T11:50:30.608Z,27.85
2022-08-07T11:53:22.092Z,27.91
2022-08-07T11:56:26.599Z,28.05
2022-08-07T12:00:08.217Z,28.17
2022-08-07T12:02:01.268Z,28.42
2022-08-07T12:04:38.737Z,28.56
2022-08-07T12:07:27.480Z,28.81
2022-08-07T12:10:05.940Z,28.99
2022-08-07T12:12:46.440Z,29.01
2022-08-07T12:15:57.944Z,28.93
2022-08-07T12:18:13.947Z,28.95
2022-08-07T12:21:21.206Z,29.21
2022-08-07T12:24:37.559Z,29.37
2022-08-07T12:27:14.957Z,29.45
2022-08-07T12:29:51.729Z,29.62
2022-08-07T12:32:40.780Z,29.53
2022-08-07T12:35:12.520Z,29.48
2022-08-07T12:38:09.059Z,29.57
2022-08-07T12:40:50.826Z,29.74
2022-08-07T12:44:02.136Z,29.72
2022-08-07T12:46:32.794Z,29.71
2022-08-07T12:49:25.879Z,29.71
2022-08-07T12:52:29.431Z,29.75
2022-08-07T12:55:17.568Z,29.81
2022-08-07T12:58:01.185Z,29.86
2022-08-07T13:00:50.132Z,30.04
2022-08-07T13:03:53.519Z,30.13
2022-08-07T13:07:01.847Z,30.32
2022-08-07T13:10:21.438Z,30.53
2022-08-07T13:12:57.905Z,30.80
2022-08-07T13:15:47.671Z,31.08
2022-08-07T13:18:36.123Z,31.08
2022-08-07T13:21:10.710Z,30.96
2022-08-07T13:24:01.440Z,30.84
2022-08-07T13:26:46.079Z,30.83
2022-08-07T13:29:20.172Z,30.83
2022-08-07T13:31:59.870Z,30.85
2022-08-07T13:35:08.698Z,30.91
2022-08-07T13:37:55.322Z,30.98
2022-08-07T13:40:35.034Z,31.05
2022-08-07T13:43:12.298Z,31.17
2022-08-07T13:46:20.837Z,31.38
2022-08-07T13:48:34.713Z,31.49
2022-08-07T13:51:28.534Z,31.55
2022-08-07T13:54:00.181Z,31.62
2022-08-07T13:56:35.340Z,31.67
2022-08-07T13:59:32.758Z,31.85
2022-08-07T14:02:12.624Z,31.97
2022-08-07T14:04:54.842Z,32.14
2022-08-07T14:07:26.191Z,32.28
2022-08-07T14:10:15.657Z,32.36
2022-08-07T14:13:02.835Z,32.38
2022-08-07T14:15:39.629Z,32.36
2022-08-07T14:18:32.623Z,32.43
2022-08-07T14:21:11.983Z,32.33
2022-08-07T14:24:02.219Z,32.47
2022-08-07T14:26:50.541Z,32.53
2022-08-07T14:30:05.269Z,32.65
2022-08-07T14:32:29.943Z,32.56
2022-08-07T14:35:01.319Z,32.65
2022-08-07T14:37:39.102Z,32.73
2022-08-07T14:40:16.979Z,32.92
2022-08-07T14:43:55.396Z,33.18
2022-08-07T14:45:59.433Z,33.36
2022-08-07T14:48:33.211Z,33.55
2022-08-07T14:51:16.109Z,33.68
2022-08-07T14:54:05.423Z,33.70
2022-08-07T14:56:33.120Z,33.97
2022-08-07T14:59:13.680Z,34.08
2022-08-07T15:01:51.943Z,34.11
2022-08-07T15:04:21.781Z,33.96
2022-08-07T15:06:52.235Z,34.13
2022-08-07T15:12:25.848Z,34.30
2022-08-07T15:15:21.378Z,34.32
2022-08-07T15:17:56.042Z,34.30
2022-08-07T15:23:22.519Z,34.22
2022-08-07T15:26:10.898Z,34.39
2022-08-07T15:28:56.711Z,34.37
2022-08-07T15:32:01.904Z,34.40
2022-08-07T15:34:28.106Z,34.54
2022-08-07T15:37:02.909Z,34.66
2022-08-07T15:39:57.944Z,34.89
2022-08-07T15:42:47.876Z,35.16
2022-08-07T15:45:25.743Z,35.20
2022-08-07T15:48:12.678Z,35.55
2022-08-07T15:53:51.597Z,35.92
2022-08-07T15:56:24.250Z,36.16
2022-08-07T15:58:59.180Z,36.34
2022-08-07T16:01:39.435Z,36.58
2022-08-07T16:04:15.174Z,36.72
2022-08-07T16:06:59.984Z,36.76
2022-08-07T16:09:54.630Z,36.75
2022-08-07T16:13:04.601Z,36.64
2022-08-07T16:15:57.939Z,36.55
2022-08-07T16:18:59.080Z,36.46
2022-08-07T16:22:02.623Z,36.39
2022-08-07T16:24:33.830Z,36.39
2022-08-07T16:27:17.880Z,36.30
2022-08-07T16:30:10.693Z,36.39
2022-08-07T16:33:00.620Z,36.37
2022-08-07T16:35:58.459Z,36.22
2022-08-07T16:39:00.727Z,35.87
2022-08-07T16:41:48.783Z,35.29
2022-08-07T16:44:46.933Z,34.83
2022-08-07T16:47:56.620Z,34.22
2022-08-07T16:50:41.684Z,33.46
2022-08-07T16:54:02.476Z,32.95
2022-08-07T16:56:22.063Z,32.46
2022-08-07T16:59:14.301Z,32.08
2022-08-07T17:02:03.489Z,31.77
2022-08-07T17:04:57.536Z,31.53
2022-08-07T17:07:55.311Z,31.32
2022-08-07T17:10:54.954Z,31.09
2022-08-07T17:13:41.853Z,30.94
2022-08-07T17:16:29.209Z,30.67
2022-08-07T17:19:17.273Z,30.49
2022-08-07T17:22:10.720Z,30.28
2022-08-07T17:25:02.599Z,30.09
2022-08-07T17:27:56.941Z,29.98
2022-08-07T17:30:30.074Z,29.89
2022-08-07T17:34:15.546Z,29.82
2022-08-07T17:36:12.254Z,29.73
2022-08-07T17:38:56.909Z,29.67
2022-08-07T17:42:05.007Z,29.64
2022-08-07T17:44:41.495Z,29.62
2022-08-07T17:47:38.587Z,29.55
2022-08-07T17:50:19.275Z,29.44
2022-08-07T17:52:59.606Z,29.36
2022-08-07T17:56:01.026Z,29.26
2022-08-07T17:58:33.017Z,29.12
2022-08-07T18:01:20.963Z,28.97
2022-08-07T18:04:24.672Z,28.80
2022-08-07T18:07:20.130Z,28.62
2022-08-07T18:10:05.915Z,28.46
2022-08-07T18:13:09.785Z,28.31
2022-08-07T18:15:54.948Z,28.18
2022-08-07T18:18:45.210Z,28.08
2022-08-07T18:21:30.099Z,27.97
2022-08-07T18:24:34.440Z,27.83
2022-08-07T18:27:39.306Z,27.71
2022-08-07T18:30:32.810Z,27.55
2022-08-07T18:33:15.586Z,27.34
2022-08-07T18:36:08.150Z,27.21
2022-08-07T18:38:58.724Z,27.06
2022-08-07T18:41:44.958Z,26.87
2022-08-07T18:45:09.200Z,26.70
2022-08-07T18:47:44.429Z,26.48
2022-08-07T18:50:43.974Z,26.28
2022-08-07T18:53:36.921Z,26.13
2022-08-07T18:56:17.905Z,25.92
2022-08-07T18:59:00.934Z,25.72
2022-08-07T19:02:31.780Z,25.53
2022-08-07T19:04:38.903Z,25.32
2022-08-07T19:07:51.569Z,25.07
2022-08-07T19:10:31.603Z,24.85
2022-08-07T19:13:10.272Z,24.68
2022-08-07T19:17:00.433Z,24.50
2022-08-07T19:19:17.381Z,24.33
2022-08-07T19:21:58.508Z,24.16
2022-08-07T19:24:43.496Z,24.01
2022-08-07T19:28:58.014Z,23.84
2022-08-07T19:31:05.817Z,23.71
2022-08-07T19:33:08.321Z,23.55
2022-08-07T19:35:42.128Z,23.40
2022-08-07T19:38:16.757Z,23.31
2022-08-07T19:40:50.407Z,23.19
2022-08-07T19:43:48.737Z,23.06
2022-08-07T19:46:26.479Z,22.92
2022-08-07T19:49:05.638Z,22.79
2022-08-07T19:51:53.102Z,22.68
2022-08-07T19:54:33.746Z,22.52
2022-08-07T19:58:00.838Z,22.44
2022-08-07T20:00:08.958Z,22.34
2022-08-07T20:02:51.685Z,22.27
2022-08-07T20:05:29.746Z,22.15
2022-08-07T20:08:13.721Z,22.06
2022-08-07T20:10:55.237Z,22.00
2022-08-07T20:13:58.130Z,21.90
2022-08-07T20:16:34.884Z,21.80
2022-08-07T20:19:05.938Z,21.73
2022-08-07T20:21:46.589Z,21.67
2022-08-07T20:24:17.904Z,21.56
2022-08-07T20:26:52.341Z,21.48
2022-08-07T20:29:48.338Z,21.38
2022-08-07T20:32:25.746Z,21.26
2022-08-07T20:34:56.002Z,21.15
2022-08-07T20:37:33.593Z,21.05
2022-08-07T20:40:33.149Z,20.93
2022-08-07T20:42:59.142Z,20.83
2022-08-07T20:46:28.786Z,20.78
2022-08-07T20:48:28.771Z,20.68
2022-08-07T20:51:00.497Z,20.58
2022-08-07T20:54:02.804Z,20.48
2022-08-07T20:56:25.805Z,20.36
2022-08-07T20:58:55.590Z,20.28
2022-08-07T21:01:25.740Z,20.23
2022-08-07T21:04:21.731Z,20.18
2022-08-07T21:06:53.627Z,20.10
2022-08-07T21:09:24.668Z,20.01
2022-08-07T21:11:57.553Z,19.95
2022-08-07T21:14:33.869Z,19.89
2022-08-07T21:18:00.890Z,19.82
2022-08-07T21:20:04.563Z,19.72
2022-08-07T21:22:39.835Z,19.66
2022-08-07T21:25:17.032Z,19.65
2022-08-07T21:28:01.738Z,19.68
2022-08-07T21:30:49.415Z,19.69
2022-08-07T21:33:47.509Z,19.71
2022-08-07T21:36:31.878Z,19.77
2022-08-07T21:39:46.016Z,19.83
2022-08-07T21:46:08.386Z,19.84
2022-08-07T21:48:48.190Z,19.77
2022-08-07T21:51:26.303Z,19.67
2022-08-07T21:54:22.469Z,19.60
2022-08-07T21:57:08.111Z,19.50
2022-08-07T22:00:04.051Z,19.43
2022-08-07T22:02:56.519Z,19.42
2022-08-07T22:05:45.489Z,19.38
2022-08-07T22:08:14.312Z,19.30
2022-08-07T22:10:49.603Z,19.25
2022-08-07T22:13:17.093Z,19.22
2022-08-07T22:16:42.457Z,19.17
2022-08-07T22:19:23.543Z,19.12
2022-08-07T22:22:17.796Z,19.05
2022-08-07T22:25:02.735Z,19.01
2022-08-07T22:28:29.546Z,18.98
2022-08-07T22:31:05.190Z,18.88
2022-08-07T22:33:56.450Z,18.83
2022-08-07T22:36:38.442Z,18.75
2022-08-07T22:39:16.625Z,18.71
2022-08-07T22:42:03.502Z,18.67
2022-08-07T22:44:58.678Z,18.58
2022-08-07T22:47:56.785Z,18.52
2022-08-07T22:50:45.203Z,18.46
2022-08-07T22:54:07.643Z,18.41
2022-08-07T22:57:02.910Z,18.33
2022-08-07T22:59:50.477Z,18.25
2022-08-07T23:02:24.035Z,18.20
2022-08-07T23:06:07.671Z,18.19
2022-08-07T23:08:30.176Z,18.08
2022-08-07T23:11:27.519Z,18.05
2022-08-07T23:14:17.653Z,17.96
2022-08-07T23:16:54.953Z,17.91
2022-08-07T23:20:03.321Z,17.86
2022-08-07T23:22:43.643Z,17.83
2022-08-07T23:25:34.935Z,17.82
2022-08-07T23:28:29.345Z,17.78
2022-08-07T23:32:48.939Z,17.72
2022-08-07T23:34:39.925Z,17.61
2022-08-07T23:38:01.533Z,17.60
2022-08-07T23:40:33.156Z,17.54
2022-08-07T23:43:22.917Z,17.53
2022-08-07T23:46:10.535Z,17.49
2022-08-07T23:49:13.757Z,17.46
2022-08-07T23:53:00.393Z,17.38
2022-08-07T23:54:56.816Z,17.37
2022-08-07T23:57:42.732Z,17.31
